Time;durP1;ratioP1;P1;durP2;ratioP2;P2;SDS_P1;SDS_P2;PMS_P1;PMS_P2;Temp;Humidity;BMP_temperature;BMP_pressure;BME280_temperature;BME280_humidity;BME280_pressure;Samples;Min_cycle;Max_cycle;Signal;HPM_P1;HPM_P2
2022/06/04 00:01:25;;;;;;;4.33;2.00;;;17.50;1.00;;;;;;5020256;28;20440;-78
2022/06/04 00:03:51;;;;;;;4.67;2.30;;;17.40;1.00;;;;;;5017614;28;20474;-78
2022/06/04 00:06:18;;;;;;;5.80;2.43;;;17.40;1.00;;;;;;5018413;28;20545;-79
2022/06/04 00:08:45;;;;;;;5.33;2.10;;;17.40;1.00;;;;;;5017420;28;20965;-79
2022/06/04 00:16:42;;;;;;;3.50;2.20;;;17.30;1.00;;;;;;5003239;28;20422;-79
2022/06/04 00:19:09;;;;;;;5.90;3.13;;;17.20;1.00;;;;;;5017771;28;20520;-79
2022/06/04 00:21:36;;;;;;;4.20;2.80;;;17.20;1.00;;;;;;5017879;28;20494;-78
2022/06/04 00:24:03;;;;;;;4.13;2.10;;;17.20;1.00;;;;;;5017741;28;20494;-80
2022/06/04 00:26:31;;;;;;;3.70;2.20;;;17.10;1.00;;;;;;5019021;28;20878;-79
2022/06/04 00:28:58;;;;;;;4.70;2.40;;;17.10;1.00;;;;;;5021907;28;20485;-79
2022/06/04 00:31:25;;;;;;;7.33;2.50;;;17.00;1.00;;;;;;5025592;28;20518;-78
2022/06/04 00:33:52;;;;;;;4.60;2.73;;;17.00;1.00;;;;;;5014293;28;20474;-79
2022/06/04 00:36:19;;;;;;;5.60;2.23;;;16.90;1.00;;;;;;5028214;28;20458;-79
2022/06/04 00:38:48;;;;;;;4.73;2.60;;;16.90;1.00;;;;;;5029426;28;20496;-79
2022/06/04 00:41:23;;;;;;;3.53;2.30;;;16.90;99.90;;;;;;5031289;28;20440;-79
2022/06/04 00:44:02;;;;;;;4.33;2.70;;;16.90;99.90;;;;;;5028833;28;20509;-79
2022/06/04 00:47:05;;;;;;;6.30;3.10;;;16.80;99.90;;;;;;5020702;28;20460;-78
2022/06/04 00:49:32;;;;;;;3.70;2.33;;;16.70;99.90;;;;;;5019278;28;20438;-78
2022/06/04 00:51:59;;;;;;;4.23;2.20;;;16.70;99.90;;;;;;5031040;28;20955;-79
2022/06/04 00:54:28;;;;;;;7.20;3.27;;;16.70;99.90;;;;;;5028095;28;21035;-79
2022/06/04 00:57:12;;;;;;;5.30;2.93;;;16.70;99.90;;;;;;5027534;28;20453;-79
2022/06/04 00:59:47;;;;;;;7.33;3.60;;;16.60;99.90;;;;;;5021111;28;20563;-79
2022/06/04 01:02:22;;;;;;;5.07;2.70;;;16.60;99.90;;;;;;5021022;28;20474;-79
2022/06/04 01:04:59;;;;;;;6.33;2.50;;;16.60;99.90;;;;;;5020469;28;20501;-79
2022/06/04 01:07:47;;;;;;;5.00;3.10;;;16.60;99.90;;;;;;5020380;28;20453;-79
2022/06/04 01:10:38;;;;;;;4.20;2.90;;;16.60;99.90;;;;;;5021234;28;20512;-79
2022/06/04 01:13:21;;;;;;;7.13;3.40;;;16.50;99.90;;;;;;5019941;28;20542;-80
2022/06/04 01:16:01;;;;;;;5.20;3.00;;;16.50;99.90;;;;;;5022089;28;20986;-79
2022/06/04 01:18:39;;;;;;;4.83;2.73;;;16.50;99.90;;;;;;5020223;28;20437;-78
2022/06/04 01:21:19;;;;;;;8.17;3.70;;;16.50;99.90;;;;;;5020612;28;20920;-79
2022/06/04 01:24:19;;;;;;;5.10;3.23;;;16.50;99.90;;;;;;5019668;28;20514;-79
2022/06/04 01:27:12;;;;;;;5.93;3.13;;;16.40;99.90;;;;;;5024298;28;20457;-80
2022/06/04 01:29:49;;;;;;;4.73;2.70;;;16.40;99.90;;;;;;5019750;28;20537;-79
2022/06/04 01:32:23;;;;;;;4.70;3.20;;;16.30;99.90;;;;;;5019262;28;20541;-79
2022/06/04 01:34:58;;;;;;;4.30;3.17;;;16.30;99.90;;;;;;5020983;28;20473;-79
2022/06/04 01:37:31;;;;;;;5.50;3.20;;;16.30;99.90;;;;;;5015993;28;20555;-79
2022/06/04 01:42:50;;;;;;;5.90;2.60;;;16.20;99.90;;;;;;5020021;28;20428;-79
2022/06/04 01:45:22;;;;;;;3.73;2.63;;;16.20;99.90;;;;;;5023534;28;20443;-79
2022/06/04 01:47:52;;;;;;;13.73;3.57;;;16.20;99.90;;;;;;5024172;28;20472;-79
2022/06/04 01:50:23;;;;;;;5.37;2.87;;;16.20;99.90;;;;;;5024354;28;20501;-78
2022/06/04 01:52:52;;;;;;;4.50;3.17;;;16.10;99.90;;;;;;5022403;28;20493;-79
2022/06/04 01:55:24;;;;;;;5.93;3.30;;;16.20;99.90;;;;;;5006828;28;20474;-79
2022/06/04 01:57:55;;;;;;;5.93;3.33;;;16.10;99.90;;;;;;5020209;28;20510;-79
2022/06/04 02:00:26;;;;;;;5.40;3.23;;;16.10;99.90;;;;;;5020324;28;20512;-77
2022/06/04 02:02:57;;;;;;;4.57;2.93;;;16.20;99.90;;;;;;5011928;28;20872;-79
2022/06/04 02:05:28;;;;;;;3.87;2.80;;;16.10;99.90;;;;;;5021768;28;20456;-79
2022/06/04 02:07:57;;;;;;;6.00;3.30;;;16.10;99.90;;;;;;5020657;28;20436;-79
2022/06/04 02:10:30;;;;;;;4.53;3.17;;;16.10;99.90;;;;;;5020194;28;20478;-79
2022/06/04 02:13:00;;;;;;;5.03;2.80;;;16.10;99.90;;;;;;5019728;28;21031;-79
2022/06/04 02:15:33;;;;;;;4.27;3.37;;;16.10;99.90;;;;;;5020718;28;20454;-79
2022/06/04 02:18:02;;;;;;;5.27;3.40;;;16.10;99.90;;;;;;5019940;28;20521;-78
2022/06/04 02:20:30;;;;;;;6.40;3.43;;;16.10;99.90;;;;;;5020122;28;20527;-78
2022/06/04 02:22:57;;;;;;;4.97;3.53;;;16.10;99.90;;;;;;5016795;28;20465;-78
2022/06/04 02:25:24;;;;;;;4.10;3.13;;;16.10;99.90;;;;;;5020485;28;20556;-77
2022/06/04 02:27:52;;;;;;;9.53;4.07;;;16.10;99.90;;;;;;5018162;28;20452;-78
2022/06/04 02:30:21;;;;;;;5.63;3.70;;;16.00;99.90;;;;;;5019813;28;20514;-78
2022/06/04 02:33:04;;;;;;;6.07;3.17;;;16.10;99.90;;;;;;5016528;28;20449;-78
2022/06/04 02:35:37;;;;;;;5.53;3.23;;;16.00;99.90;;;;;;5017240;28;20521;-77
2022/06/04 02:38:13;;;;;;;4.83;3.70;;;16.00;99.90;;;;;;5015870;28;20553;-78
2022/06/04 02:40:45;;;;;;;5.90;2.83;;;16.00;99.90;;;;;;5017577;28;20488;-78
2022/06/04 02:43:18;;;;;;;5.90;3.40;;;15.90;99.90;;;;;;5016230;28;20484;-78
2022/06/04 02:45:53;;;;;;;5.93;3.60;;;15.90;99.90;;;;;;5017079;28;20508;-78
2022/06/04 02:48:26;;;;;;;4.27;2.77;;;15.90;99.90;;;;;;5017968;28;20909;-78
2022/06/04 02:50:58;;;;;;;5.30;3.10;;;15.90;99.90;;;;;;5017458;28;20476;-78
2022/06/04 02:53:28;;;;;;;4.93;3.20;;;15.90;99.90;;;;;;5017342;28;20929;-78
2022/06/04 02:55:58;;;;;;;7.30;2.60;;;15.90;99.90;;;;;;5017224;28;21066;-78
2022/06/04 02:58:26;;;;;;;5.07;3.87;;;15.80;99.90;;;;;;5018016;28;20481;-78
2022/06/04 03:00:56;;;;;;;4.17;2.77;;;15.80;99.90;;;;;;5016123;28;20856;-78
2022/06/04 03:03:24;;;;;;;3.80;2.97;;;15.90;99.90;;;;;;5016755;28;20475;-77
2022/06/04 03:05:53;;;;;;;5.93;3.33;;;15.90;99.90;;;;;;5017908;28;20479;-77
2022/06/04 03:08:21;;;;;;;4.80;3.53;;;15.80;99.90;;;;;;5017434;28;20508;-78
2022/06/04 03:10:48;;;;;;;5.23;3.37;;;15.80;99.90;;;;;;5017984;28;20474;-77
2022/06/04 03:13:15;;;;;;;5.23;2.90;;;15.90;99.90;;;;;;5015931;28;20497;-78
2022/06/04 03:15:42;;;;;;;5.67;3.30;;;15.80;99.90;;;;;;5017705;28;20476;-78
2022/06/04 03:18:10;;;;;;;5.07;3.60;;;15.90;99.90;;;;;;5018184;28;20454;-79
2022/06/04 03:20:37;;;;;;;7.97;4.03;;;15.90;99.90;;;;;;5017497;28;20520;-79
2022/06/04 03:23:04;;;;;;;4.43;3.17;;;15.80;99.90;;;;;;5017232;28;20486;-79
2022/06/04 03:25:32;;;;;;;5.63;3.50;;;15.80;99.90;;;;;;5018646;28;20475;-81
2022/06/04 03:27:59;;;;;;;8.73;3.37;;;15.80;99.90;;;;;;5018967;28;20481;-80
2022/06/04 03:30:26;;;;;;;5.80;4.00;;;15.80;99.90;;;;;;5017879;28;20449;-79
2022/06/04 03:32:53;;;;;;;5.03;3.60;;;15.70;99.90;;;;;;5017805;28;20544;-80
2022/06/04 03:35:22;;;;;;;6.00;3.23;;;15.80;99.90;;;;;;5018214;28;20482;-80
2022/06/04 03:37:49;;;;;;;7.73;3.60;;;15.70;99.90;;;;;;5017275;28;20523;-81
2022/06/04 03:40:16;;;;;;;4.90;3.70;;;15.70;99.90;;;;;;5018658;28;20572;-80
2022/06/04 03:42:43;;;;;;;6.53;3.50;;;15.70;99.90;;;;;;5026168;28;20452;-80
2022/06/04 03:45:12;;;;;;;4.70;3.63;;;15.70;99.90;;;;;;5026765;28;20551;-80
2022/06/04 03:47:40;;;;;;;5.07;3.73;;;15.80;99.90;;;;;;5026089;28;20883;-78
2022/06/04 03:50:09;;;;;;;4.50;3.73;;;15.70;99.90;;;;;;5018079;28;20532;-80
2022/06/04 03:52:38;;;;;;;5.63;3.83;;;15.70;99.90;;;;;;5018665;28;20485;-79
2022/06/04 03:55:06;;;;;;;4.93;3.50;;;15.70;99.90;;;;;;5017241;28;20472;-79
2022/06/04 03:57:39;;;;;;;5.07;3.50;;;15.70;99.90;;;;;;5018040;28;20472;-79
2022/06/04 04:00:10;;;;;;;5.27;3.30;;;15.70;99.90;;;;;;5017581;28;20478;-80
2022/06/04 04:02:37;;;;;;;5.47;4.47;;;15.70;99.90;;;;;;5017286;28;20454;-80
2022/06/04 04:05:04;;;;;;;5.60;3.40;;;15.70;99.90;;;;;;5017177;28;20468;-80
2022/06/04 04:07:32;;;;;;;5.93;4.17;;;15.80;99.90;;;;;;5018407;28;20546;-79
2022/06/04 04:10:00;;;;;;;5.57;3.53;;;15.70;99.90;;;;;;5017446;28;20965;-80
2022/06/04 04:12:29;;;;;;;6.97;4.03;;;15.70;99.90;;;;;;5017430;28;20456;-78
2022/06/04 04:14:56;;;;;;;5.20;3.73;;;15.70;99.90;;;;;;5019514;28;20512;-80
2022/06/04 04:17:23;;;;;;;5.53;3.13;;;15.70;99.90;;;;;;5023704;28;20599;-80
2022/06/04 04:19:51;;;;;;;4.70;3.30;;;15.80;99.90;;;;;;5026892;28;20484;-79
2022/06/04 04:22:18;;;;;;;5.10;3.50;;;15.80;99.90;;;;;;5026514;28;20897;-79
2022/06/04 04:24:44;;;;;;;4.97;3.40;;;15.70;99.90;;;;;;5026504;28;20509;-80
2022/06/04 04:27:13;;;;;;;8.20;3.90;;;15.80;99.90;;;;;;5027292;28;20492;-79
2022/06/04 04:29:39;;;;;;;4.97;3.70;;;15.70;99.90;;;;;;5026531;28;20472;-80
2022/06/04 04:32:07;;;;;;;3.73;3.33;;;15.70;99.90;;;;;;5027929;28;20489;-80
2022/06/04 04:34:34;;;;;;;8.07;3.60;;;15.80;99.90;;;;;;5021550;28;20551;-81
2022/06/04 04:37:01;;;;;;;5.27;3.30;;;15.80;99.90;;;;;;5061731;23;20583;-85
2022/06/04 04:39:28;;;;;;;7.07;3.70;;;15.70;99.90;;;;;;5043419;28;20453;-85
2022/06/04 04:41:55;;;;;;;7.70;3.93;;;15.80;99.90;;;;;;5044181;28;20491;-84
2022/06/04 04:44:23;;;;;;;5.80;3.80;;;15.80;99.90;;;;;;5043250;28;20546;-83
2022/06/04 04:46:50;;;;;;;5.43;3.40;;;15.90;99.90;;;;;;5037253;28;20484;-84
2022/06/04 04:49:17;;;;;;;3.73;3.20;;;15.90;99.90;;;;;;5035439;28;20475;-84
2022/06/04 04:51:44;;;;;;;5.03;3.97;;;16.00;99.90;;;;;;5036098;28;20476;-82
2022/06/04 04:54:11;;;;;;;7.00;3.77;;;16.00;99.90;;;;;;5041634;28;20452;-84
2022/06/04 04:56:40;;;;;;;5.50;3.77;;;16.00;99.90;;;;;;5021654;28;21005;-82
2022/06/04 04:59:07;;;;;;;4.40;3.40;;;16.10;99.90;;;;;;5022370;28;20453;-82
2022/06/04 05:01:35;;;;;;;4.73;3.90;;;16.20;99.90;;;;;;5018070;28;20571;-80
2022/06/04 05:04:02;;;;;;;8.17;4.50;;;16.30;99.90;;;;;;5022065;28;20485;-81
2022/06/04 05:06:29;;;;;;;4.50;3.77;;;16.40;99.90;;;;;;5026168;28;20568;-79
2022/06/04 05:08:56;;;;;;;5.00;3.73;;;16.40;99.90;;;;;;5030538;28;20478;-81
2022/06/04 05:11:27;;;;;;;5.07;3.90;;;16.50;99.90;;;;;;5012471;28;20544;-80
2022/06/04 05:13:54;;;;;;;7.73;4.07;;;16.50;99.90;;;;;;5020278;28;20462;-80
2022/06/04 05:16:23;;;;;;;5.77;3.57;;;16.60;99.90;;;;;;5020553;28;20983;-80
2022/06/04 05:18:52;;;;;;;7.07;4.00;;;16.60;99.90;;;;;;5018048;28;20458;-83
2022/06/04 05:21:22;;;;;;;7.70;4.20;;;16.70;99.90;;;;;;5019015;28;20522;-81
2022/06/04 05:23:49;;;;;;;5.63;3.90;;;16.70;99.90;;;;;;5021125;28;20545;-83
2022/06/04 05:26:17;;;;;;;6.30;4.57;;;16.70;99.90;;;;;;5023124;28;20473;-85
2022/06/04 05:28:44;;;;;;;4.73;3.63;;;16.70;99.90;;;;;;5019835;28;20536;-82
2022/06/04 05:31:12;;;;;;;5.03;3.90;;;16.70;99.90;;;;;;5031897;28;20503;-82
2022/06/04 05:33:39;;;;;;;5.20;3.60;;;16.80;99.90;;;;;;5039323;28;20573;-83
2022/06/04 05:36:07;;;;;;;4.73;3.90;;;16.90;99.90;;;;;;5041502;28;21172;-84
2022/06/04 05:38:36;;;;;;;6.27;4.10;;;16.90;99.90;;;;;;5025270;28;20495;-84
2022/06/04 05:41:06;;;;;;;6.17;3.50;;;16.90;99.90;;;;;;5037933;28;20484;-85
2022/06/04 05:43:34;;;;;;;9.80;4.90;;;17.00;99.90;;;;;;5035318;28;20473;-84
2022/06/04 05:46:02;;;;;;;5.00;4.20;;;17.10;99.90;;;;;;5020627;28;20485;-83
2022/06/04 05:48:30;;;;;;;7.33;4.20;;;17.20;99.90;;;;;;5020678;28;20469;-84
2022/06/04 05:50:58;;;;;;;7.30;4.50;;;17.30;99.90;;;;;;5020125;28;20457;-85
2022/06/04 05:53:26;;;;;;;5.47;4.13;;;17.20;99.90;;;;;;5019407;28;20449;-84
2022/06/04 05:55:53;;;;;;;6.33;4.90;;;17.20;99.90;;;;;;5020370;28;20514;-85
2022/06/04 05:58:23;;;;;;;8.53;4.30;;;17.30;99.90;;;;;;5020020;28;20492;-84
2022/06/04 06:00:50;;;;;;;6.47;4.60;;;17.40;99.90;;;;;;5011501;28;20565;-82
2022/06/04 06:03:17;;;;;;;6.53;5.60;;;17.40;99.90;;;;;;5015628;28;20532;-84
2022/06/04 06:05:45;;;;;;;7.10;4.20;;;17.30;99.90;;;;;;5018622;28;20488;-82
2022/06/04 06:08:13;;;;;;;9.80;4.60;;;17.50;99.90;;;;;;5017956;28;20479;-83
2022/06/04 06:10:43;;;;;;;6.60;4.27;;;17.40;99.90;;;;;;5018269;28;20445;-85
2022/06/04 06:13:11;;;;;;;6.60;4.20;;;17.50;99.90;;;;;;5017121;28;20469;-84
2022/06/04 06:15:38;;;;;;;5.10;4.20;;;17.60;99.90;;;;;;5017788;28;20862;-83
2022/06/04 06:18:07;;;;;;;5.93;3.73;;;17.70;99.90;;;;;;5017654;28;20502;-83
2022/06/04 06:20:35;;;;;;;6.77;4.53;;;17.80;99.90;;;;;;5030396;28;20561;-83
2022/06/04 06:23:02;;;;;;;6.27;4.10;;;17.80;99.90;;;;;;5026572;28;21000;-83
2022/06/04 06:25:29;;;;;;;6.03;4.13;;;17.90;99.90;;;;;;5020462;28;20491;-84
2022/06/04 06:27:59;;;;;;;8.50;4.70;;;18.00;99.90;;;;;;5021061;28;20479;-82
2022/06/04 06:30:27;;;;;;;5.60;4.47;;;18.10;99.90;;;;;;5017234;28;20961;-82
2022/06/04 06:32:54;;;;;;;4.83;4.17;;;18.20;99.90;;;;;;5018899;28;20446;-81
2022/06/04 06:35:21;;;;;;;8.50;4.23;;;18.30;99.90;;;;;;5017142;28;20593;-80
2022/06/04 06:37:48;;;;;;;6.60;5.27;;;18.20;99.90;;;;;;5017394;28;20455;-83
2022/06/04 06:40:15;;;;;;;6.50;3.63;;;18.30;99.90;;;;;;5018063;28;20964;-82
2022/06/04 06:42:42;;;;;;;5.73;4.00;;;18.40;99.90;;;;;;5015901;28;20446;-82
2022/06/04 06:45:11;;;;;;;5.40;4.43;;;18.40;99.90;;;;;;5017911;28;20534;-83
2022/06/04 06:47:40;;;;;;;5.80;4.03;;;18.30;99.90;;;;;;5015057;28;20515;-84
2022/06/04 06:50:08;;;;;;;6.33;4.03;;;18.50;99.90;;;;;;5014002;28;20982;-82
2022/06/04 06:52:35;;;;;;;7.23;3.80;;;18.40;99.90;;;;;;5015249;28;20483;-81
2022/06/04 06:55:02;;;;;;;8.10;4.80;;;18.50;99.90;;;;;;5014860;28;20487;-85
2022/06/04 06:57:28;;;;;;;4.33;3.80;;;18.40;99.90;;;;;;5016406;28;20555;-83
2022/06/04 06:59:56;;;;;;;7.20;4.10;;;18.50;99.90;;;;;;5014040;28;20496;-81
2022/06/04 07:02:25;;;;;;;4.10;3.30;;;18.70;99.90;;;;;;5019572;28;20556;-82
2022/06/04 07:04:51;;;;;;;7.03;3.93;;;18.80;99.90;;;;;;5017638;28;20544;-83
2022/06/04 07:07:23;;;;;;;5.97;4.40;;;19.00;99.90;;;;;;5017070;28;20472;-83
2022/06/04 07:09:54;;;;;;;6.10;4.27;;;18.80;99.90;;;;;;5017504;28;20483;-85
2022/06/04 07:12:21;;;;;;;5.97;4.00;;;19.00;99.90;;;;;;5020705;28;20463;-85
2022/06/04 07:14:48;;;;;;;4.93;3.43;;;19.20;99.90;;;;;;5017445;28;20465;-82
2022/06/04 07:17:15;;;;;;;4.70;4.07;;;19.40;99.90;;;;;;5017846;28;20534;-84
2022/06/04 07:19:44;;;;;;;5.97;3.93;;;19.70;99.90;;;;;;5017666;28;20435;-84
2022/06/04 07:22:11;;;;;;;6.27;3.93;;;19.90;99.90;;;;;;5020029;28;20488;-83
2022/06/04 07:24:38;;;;;;;4.70;3.70;;;20.20;99.90;;;;;;5022420;28;20457;-83
2022/06/04 07:27:06;;;;;;;5.70;3.60;;;20.40;99.90;;;;;;5016991;28;20512;-84
2022/06/04 07:29:33;;;;;;;4.70;3.90;;;20.60;99.90;;;;;;5018075;28;20481;-83
2022/06/04 07:32:00;;;;;;;5.30;3.97;;;20.70;99.90;;;;;;5017407;28;20457;-83
2022/06/04 07:34:27;;;;;;;5.63;3.93;;;20.80;99.90;;;;;;5019782;28;20941;-82
2022/06/04 07:36:56;;;;;;;4.80;3.70;;;20.80;99.90;;;;;;5020248;28;20517;-79
2022/06/04 07:39:23;;;;;;;5.77;3.40;;;20.70;99.90;;;;;;5018536;28;20454;-83
2022/06/04 07:41:53;;;;;;;7.60;4.23;;;20.70;99.90;;;;;;5017714;28;20545;-84
2022/06/04 07:44:21;;;;;;;5.87;3.97;;;20.60;99.90;;;;;;5017515;28;20478;-83
2022/06/04 07:46:49;;;;;;;5.57;4.40;;;20.50;99.90;;;;;;5023383;28;20474;-82
2022/06/04 07:49:16;;;;;;;5.90;4.00;;;20.60;99.90;;;;;;5027094;28;20454;-83
2022/06/04 07:51:44;;;;;;;8.13;4.10;;;20.50;99.90;;;;;;5020168;28;20473;-81
2022/06/04 07:54:15;;;;;;;4.73;3.80;;;20.60;99.90;;;;;;5024492;28;20948;-83
2022/06/04 07:56:43;;;;;;;6.90;4.50;;;20.70;99.90;;;;;;5023378;28;20480;-83
2022/06/04 07:59:13;;;;;;;5.20;4.30;;;20.70;99.90;;;;;;5025431;28;20480;-82
2022/06/04 08:01:40;;;;;;;6.87;4.13;;;20.70;99.90;;;;;;5025013;28;20984;-83
2022/06/04 08:04:06;;;;;;;4.83;4.00;;;20.70;99.90;;;;;;5026834;28;20564;-82
2022/06/04 08:06:34;;;;;;;5.10;3.80;;;20.70;99.90;;;;;;5021391;28;20488;-82
2022/06/04 08:09:01;;;;;;;6.23;4.53;;;20.50;99.90;;;;;;5023314;28;20484;-83
2022/06/04 08:11:33;;;;;;;6.33;3.90;;;20.40;99.90;;;;;;5028360;28;20438;-82
2022/06/04 08:14:03;;;;;;;11.60;5.20;;;20.60;99.90;;;;;;5022313;28;20995;-83
2022/06/04 08:16:30;;;;;;;5.23;4.73;;;20.70;99.90;;;;;;5024957;28;20850;-83
2022/06/04 08:18:58;;;;;;;7.63;4.90;;;20.80;99.90;;;;;;5021456;28;20454;-84
2022/06/04 08:21:25;;;;;;;5.70;4.87;;;20.90;99.90;;;;;;5021612;28;20477;-83
2022/06/04 08:23:53;;;;;;;4.70;4.13;;;21.00;99.90;;;;;;5021021;28;20465;-83
2022/06/04 08:26:19;;;;;;;10.87;5.20;;;21.20;99.90;;;;;;5020143;28;21335;-84
2022/06/04 08:28:48;;;;;;;5.57;4.90;;;21.20;99.90;;;;;;5021063;28;20548;-83
2022/06/04 08:31:16;;;;;;;9.00;5.20;;;21.30;99.90;;;;;;5020518;28;20518;-83
2022/06/04 08:33:47;;;;;;;8.50;4.80;;;21.30;99.90;;;;;;5022424;28;20461;-84
2022/06/04 08:36:16;;;;;;;7.40;4.57;;;21.40;99.90;;;;;;5022298;28;20512;-85
2022/06/04 08:38:43;;;;;;;7.03;4.53;;;21.60;99.90;;;;;;5022909;28;20476;-82
2022/06/04 08:41:35;;;;;;;6.63;5.10;;;21.70;99.90;;;;;;5028031;28;20524;-80
2022/06/04 08:44:12;;;;;;;5.60;4.87;;;21.80;99.90;;;;;;5021555;28;20478;-82
2022/06/04 08:46:43;;;;;;;6.20;5.17;;;22.00;99.90;;;;;;5017126;28;20469;-82
2022/06/04 08:49:14;;;;;;;5.27;4.40;;;22.10;99.90;;;;;;5017698;28;20436;-82
2022/06/04 08:51:44;;;;;;;5.70;4.70;;;22.30;99.90;;;;;;5014941;28;20438;-82
2022/06/04 08:59:56;;;;;;;8.83;5.33;;;22.60;99.90;;;;;;5011638;28;20576;-82
2022/06/04 09:02:30;;;;;;;5.87;4.57;;;22.50;99.90;;;;;;5014487;28;20489;-81
2022/06/04 09:05:02;;;;;;;6.53;4.77;;;22.70;99.90;;;;;;4999029;28;20517;-82
2022/06/04 09:07:35;;;;;;;6.33;4.30;;;22.80;99.90;;;;;;5000082;28;21134;-82
2022/06/04 09:10:07;;;;;;;6.00;5.40;;;23.00;99.90;;;;;;5018030;28;20596;-83
2022/06/04 09:12:39;;;;;;;6.40;5.43;;;22.90;99.90;;;;;;5017518;28;20452;-82
2022/06/04 09:15:14;;;;;;;6.03;4.40;;;22.90;99.90;;;;;;5015835;28;20450;-82
2022/06/04 09:17:47;;;;;;;6.77;4.50;;;23.00;99.90;;;;;;5015219;28;20508;-83
2022/06/04 09:20:23;;;;;;;5.53;4.50;;;23.00;99.90;;;;;;5014560;28;20455;-82
2022/06/04 09:22:55;;;;;;;5.80;5.03;;;23.00;99.90;;;;;;5012509;28;20523;-83
2022/06/04 09:25:25;;;;;;;7.10;5.00;;;22.90;99.90;;;;;;5017956;28;20438;-83
2022/06/04 09:28:01;;;;;;;5.63;4.27;;;23.00;99.90;;;;;;5013532;28;21012;-83
2022/06/04 09:30:38;;;;;;;7.40;4.23;;;22.90;99.90;;;;;;5013298;28;20478;-82
2022/06/04 09:33:36;;;;;;;9.80;4.80;;;22.80;99.90;;;;;;5012517;28;20478;-84
2022/06/04 09:36:04;;;;;;;4.67;3.97;;;22.90;99.90;;;;;;5014513;28;20557;-83
2022/06/04 09:38:35;;;;;;;5.23;4.43;;;23.00;99.90;;;;;;5019674;28;20979;-82
2022/06/04 09:41:04;;;;;;;5.90;4.67;;;23.00;99.90;;;;;;5019604;28;20452;-84
2022/06/04 09:43:31;;;;;;;5.67;4.70;;;23.00;99.90;;;;;;5015557;28;20549;-82
2022/06/04 09:46:02;;;;;;;5.10;4.00;;;23.20;99.90;;;;;;5019801;28;20465;-81
2022/06/04 09:48:32;;;;;;;5.50;4.30;;;23.10;99.90;;;;;;5020368;28;20489;-83
2022/06/04 09:51:02;;;;;;;5.33;4.30;;;23.10;99.90;;;;;;5020061;28;20458;-84
2022/06/04 09:53:30;;;;;;;5.97;4.43;;;23.10;99.90;;;;;;5018645;28;20458;-83
2022/06/04 09:56:00;;;;;;;5.30;4.60;;;23.10;99.90;;;;;;5019813;28;21009;-83
2022/06/04 09:58:29;;;;;;;7.73;4.60;;;23.10;99.90;;;;;;5038712;28;20908;-82
2022/06/04 10:01:01;;;;;;;6.43;4.77;;;23.30;99.90;;;;;;5047093;28;20472;-85
2022/06/04 10:03:33;;;;;;;5.43;4.40;;;23.50;99.90;;;;;;5024148;28;21084;-84
2022/06/04 10:06:04;;;;;;;7.33;5.07;;;23.50;99.90;;;;;;5018962;28;20497;-82
2022/06/04 10:09:54;;;;;;;8.67;5.07;;;23.60;99.90;;;;;;5010325;28;20843;-84
2022/06/04 10:11:21;;;;;;;6.00;4.60;;;23.70;99.90;;;;;;5010132;28;20938;-84
2022/06/04 10:13:49;;;;;;;5.43;4.10;;;23.80;99.90;;;;;;5017242;28;20531;-84
2022/06/04 10:16:20;;;;;;;5.30;4.73;;;23.70;99.90;;;;;;5015524;28;20473;-84
2022/06/04 10:18:59;;;;;;;4.93;4.23;;;23.70;99.90;;;;;;5016949;28;20476;-84
2022/06/04 10:21:29;;;;;;;6.57;5.27;;;23.70;99.90;;;;;;5017019;28;20521;-85
2022/06/04 10:23:58;;;;;;;7.20;4.47;;;23.70;99.90;;;;;;5015643;28;20486;-84
2022/06/04 10:26:51;;;;;;;6.60;5.10;;;23.80;99.90;;;;;;5015339;28;20501;-85
2022/06/04 10:29:57;;;;;;;5.50;4.57;;;23.80;99.90;;;;;;5013775;28;20512;-83
2022/06/04 10:32:39;;;;;;;6.90;4.80;;;24.10;99.90;;;;;;4932762;29;20460;-85
2022/06/04 10:35:14;;;;;;;6.87;4.80;;;24.40;99.90;;;;;;5017852;28;20468;-85
2022/06/04 10:38:03;;;;;;;7.67;6.13;;;24.70;99.90;;;;;;5033768;28;20477;-85
2022/06/04 10:40:41;;;;;;;5.83;5.23;;;24.60;99.90;;;;;;5034625;28;20446;-84
2022/06/04 10:43:25;;;;;;;6.10;4.77;;;24.70;99.90;;;;;;5034094;28;20480;-85
2022/06/04 10:45:59;;;;;;;6.80;5.57;;;24.90;99.90;;;;;;5033023;28;20481;-85
2022/06/04 10:48:41;;;;;;;10.23;6.40;;;24.80;99.90;;;;;;5024519;28;20452;-84
2022/06/04 10:51:29;;;;;;;7.30;5.27;;;25.10;99.90;;;;;;5034271;28;20488;-83
2022/06/04 10:54:04;;;;;;;8.47;6.07;;;25.00;99.90;;;;;;5038525;28;20679;-84
2022/06/04 10:56:36;;;;;;;7.73;6.37;;;25.20;99.90;;;;;;5028199;28;20531;-82
2022/06/04 10:59:09;;;;;;;7.33;4.67;;;25.60;99.90;;;;;;5040014;28;20441;-85
2022/06/04 11:01:41;;;;;;;8.70;7.40;;;25.70;99.90;;;;;;5041627;28;20501;-85
2022/06/04 11:04:21;;;;;;;8.13;5.97;;;25.70;99.90;;;;;;5041094;28;20480;-84
2022/06/04 11:06:54;;;;;;;7.00;5.03;;;25.80;99.90;;;;;;5025801;28;20541;-84
2022/06/04 11:09:28;;;;;;;8.27;5.40;;;26.20;99.90;;;;;;5027481;28;20478;-84
2022/06/04 11:12:00;;;;;;;8.77;6.80;;;26.40;99.90;;;;;;5020708;28;20484;-85
2022/06/04 11:14:38;;;;;;;6.30;5.30;;;26.70;99.90;;;;;;5024146;28;20442;-84
2022/06/04 11:17:13;;;;;;;6.50;5.80;;;27.00;99.90;;;;;;5038172;28;20496;-83
2022/06/04 11:19:55;;;;;;;7.80;5.03;;;27.30;99.90;;;;;;5036743;28;20444;-82
2022/06/04 11:22:27;;;;;;;7.13;5.80;;;27.50;99.90;;;;;;5034474;28;20512;-86
2022/06/04 11:25:03;;;;;;;10.37;5.80;;;27.60;99.90;;;;;;5020750;28;20485;-84
2022/06/04 11:27:38;;;;;;;7.07;5.77;;;27.50;99.90;;;;;;5020081;28;20480;-84
2022/06/04 11:30:15;;;;;;;6.10;5.07;;;27.50;99.90;;;;;;5020708;28;20449;-86
2022/06/04 11:32:52;;;;;;;5.67;5.07;;;27.60;99.90;;;;;;5020671;28;20977;-85
2022/06/04 11:35:40;;;;;;;5.60;5.10;;;27.90;99.90;;;;;;5021209;28;20472;-82
2022/06/04 11:38:49;;;;;;;12.30;6.20;;;28.20;99.90;;;;;;5019911;28;20457;-83
2022/06/04 11:41:28;;;;;;;6.00;4.87;;;28.50;99.90;;;;;;5018704;28;20505;-84
2022/06/04 11:44:18;;;;;;;4.60;3.80;;;28.80;99.90;;;;;;5018107;28;20477;-84
2022/06/04 11:47:01;;;;;;;5.40;3.90;;;29.40;99.90;;;;;;5022330;28;20482;-83
2022/06/04 11:49:44;;;;;;;6.87;4.50;;;29.90;99.90;;;;;;5021352;28;20522;-83
2022/06/04 11:52:23;;;;;;;6.33;4.20;;;30.20;99.90;;;;;;5017556;28;20457;-84
2022/06/04 11:55:09;;;;;;;6.13;3.70;;;30.40;99.90;;;;;;5004594;28;20482;-85
2022/06/04 11:57:45;;;;;;;7.33;4.77;;;30.40;99.90;;;;;;5009897;28;20638;-84
2022/06/04 12:00:25;;;;;;;5.50;5.00;;;30.50;99.90;;;;;;5009753;28;20846;-84
2022/06/04 12:03:01;;;;;;;6.87;4.00;;;30.60;99.90;;;;;;5012414;28;20508;-85
2022/06/04 12:05:41;;;;;;;4.83;4.43;;;30.40;99.90;;;;;;5012485;28;20445;-85
2022/06/04 12:08:15;;;;;;;7.83;4.60;;;30.00;99.90;;;;;;5016685;28;20452;-83
2022/06/04 12:11:03;;;;;;;5.90;5.33;;;29.60;99.90;;;;;;5012753;28;20463;-85
2022/06/04 12:13:39;;;;;;;6.10;4.60;;;29.40;99.90;;;;;;5016437;28;20426;-84
2022/06/04 12:16:13;;;;;;;8.00;4.80;;;29.10;99.90;;;;;;5012066;28;21218;-83
2022/06/04 12:18:46;;;;;;;4.83;4.10;;;28.90;99.90;;;;;;5016039;28;20532;-82
2022/06/04 12:24:36;;;;;;;5.07;3.70;;;28.30;99.90;;;;;;5016280;28;20924;-83
2022/06/04 12:27:21;;;;;;;6.83;4.17;;;28.20;99.90;;;;;;5015145;28;20544;-84
2022/06/04 12:29:50;;;;;;;6.33;3.57;;;28.70;99.90;;;;;;5004134;28;20496;-85
2022/06/04 12:32:28;;;;;;;4.67;3.57;;;29.00;99.90;;;;;;5026562;28;20456;-84
2022/06/04 12:35:15;;;;;;;5.43;3.90;;;29.70;99.90;;;;;;5016288;28;20989;-82
2022/06/04 12:37:47;;;;;;;5.97;3.77;;;30.30;99.90;;;;;;5017096;28;20869;-83
2022/06/04 12:40:51;;;;;;;4.40;3.13;;;30.70;99.90;;;;;;5017844;28;20536;-84
2022/06/04 12:43:34;;;;;;;3.20;2.67;;;30.60;99.90;;;;;;4996918;28;20485;-85
2022/06/04 12:46:35;;;;;;;5.83;4.60;;;30.70;99.90;;;;;;5012131;28;20482;-85
2022/06/04 12:49:13;;;;;;;6.27;4.20;;;30.40;99.90;;;;;;4939994;29;21163;-84
2022/06/04 12:51:50;;;;;;;4.43;4.03;;;30.30;99.90;;;;;;4931222;29;20457;-84
2022/06/04 12:54:36;;;;;;;4.80;3.73;;;30.50;99.90;;;;;;4985205;28;21015;-85
2022/06/04 12:57:13;;;;;;;3.30;2.90;;;31.20;99.90;;;;;;5003978;28;20484;-86
2022/06/04 12:59:44;;;;;;;4.13;3.60;;;32.40;99.90;;;;;;5025072;28;20449;-84
2022/06/04 13:02:33;;;;;;;3.90;1.90;;;33.50;99.90;;;;;;5016077;28;20549;-84
2022/06/04 13:05:13;;;;;;;6.30;3.30;;;34.40;99.90;;;;;;5016564;28;20457;-84
2022/06/04 13:07:47;;;;;;;3.20;2.33;;;34.20;99.90;;;;;;5028704;28;20539;-86
2022/06/04 13:10:25;;;;;;;3.53;2.30;;;34.20;99.90;;;;;;5019139;28;20488;-86
2022/06/04 13:12:59;;;;;;;3.60;2.23;;;34.20;99.90;;;;;;5016739;28;20449;-85
2022/06/04 13:15:37;;;;;;;2.80;2.00;;;34.40;99.90;;;;;;5018605;28;20507;-85
2022/06/04 13:18:05;;;;;;;5.03;2.77;;;34.40;99.90;;;;;;5018560;28;20449;-84
2022/06/04 13:20:39;;;;;;;2.63;1.93;;;34.60;99.90;;;;;;5016923;28;20453;-85
2022/06/04 13:23:28;;;;;;;3.73;2.27;;;35.10;99.90;;;;;;5018367;28;20974;-85
2022/06/04 13:26:07;;;;;;;3.30;2.20;;;36.00;97.50;;;;;;5010378;28;21120;-84
2022/06/04 13:28:36;;;;;;;3.03;2.00;;;36.10;92.50;;;;;;5018891;28;20453;-85
2022/06/04 13:31:06;;;;;;;3.03;2.27;;;36.60;94.00;;;;;;5026242;28;20869;-84